sensor_id;sensor_type;location;lat;lon;timestamp;P1;durP1;ratioP1;P2;durP2;ratioP2
61617;SDS011;47518;51.776;9.370;2023-05-19T00:00:33;5.22;;;4.10;;
61617;SDS011;47518;51.776;9.370;2023-05-19T00:03:01;5.28;;;4.30;;
61617;SDS011;47518;51.776;9.370;2023-05-19T00:05:27;5.47;;;4.20;;
61617;SDS011;47518;51.776;9.370;2023-05-19T00:07:55;5.22;;;4.30;;
61617;SDS011;47518;51.776;9.370;2023-05-19T00:10:24;7.18;;;4.20;;
61617;SDS011;47518;51.776;9.370;2023-05-19T00:12:55;8.25;;;4.53;;
61617;SDS011;47518;51.776;9.370;2023-05-19T00:15:21;5.82;;;4.35;;
61617;SDS011;47518;51.776;9.370;2023-05-19T00:17:46;6.55;;;4.13;;
61617;SDS011;47518;51.776;9.370;2023-05-19T00:20:12;8.70;;;4.70;;
61617;SDS011;47518;51.776;9.370;2023-05-19T00:22:38;6.90;;;4.32;;
61617;SDS011;47518;51.776;9.370;2023-05-19T00:25:04;7.82;;;4.30;;
61617;SDS011;47518;51.776;9.370;2023-05-19T00:27:30;6.75;;;4.22;;
61617;SDS011;47518;51.776;9.370;2023-05-19T00:29:55;5.70;;;4.30;;
61617;SDS011;47518;51.776;9.370;2023-05-19T00:32:20;5.57;;;4.10;;
61617;SDS011;47518;51.776;9.370;2023-05-19T00:34:46;6.10;;;4.20;;
61617;SDS011;47518;51.776;9.370;2023-05-19T00:37:12;7.00;;;3.90;;
61617;SDS011;47518;51.776;9.370;2023-05-19T00:39:38;4.70;;;3.95;;
61617;SDS011;47518;51.776;9.370;2023-05-19T00:42:03;6.65;;;4.07;;
61617;SDS011;47518;51.776;9.370;2023-05-19T00:44:29;6.28;;;4.25;;
61617;SDS011;47518;51.776;9.370;2023-05-19T00:46:55;5.65;;;3.70;;
61617;SDS011;47518;51.776;9.370;2023-05-19T00:49:21;7.10;;;4.00;;
61617;SDS011;47518;51.776;9.370;2023-05-19T00:51:46;9.45;;;4.18;;
61617;SDS011;47518;51.776;9.370;2023-05-19T00:54:13;6.80;;;4.32;;
61617;SDS011;47518;51.776;9.370;2023-05-19T00:56:39;5.30;;;4.30;;
61617;SDS011;47518;51.776;9.370;2023-05-19T00:59:04;7.40;;;3.92;;
61617;SDS011;47518;51.776;9.370;2023-05-19T01:01:30;10.48;;;4.45;;
61617;SDS011;47518;51.776;9.370;2023-05-19T01:03:56;4.88;;;4.10;;
61617;SDS011;47518;51.776;9.370;2023-05-19T01:06:22;5.22;;;3.78;;
61617;SDS011;47518;51.776;9.370;2023-05-19T01:08:49;5.80;;;4.10;;
61617;SDS011;47518;51.776;9.370;2023-05-19T01:11:15;5.93;;;4.10;;
61617;SDS011;47518;51.776;9.370;2023-05-19T01:13:41;6.95;;;3.80;;
61617;SDS011;47518;51.776;9.370;2023-05-19T01:16:10;5.07;;;3.60;;
61617;SDS011;47518;51.776;9.370;2023-05-19T01:18:44;7.50;;;4.18;;
61617;SDS011;47518;51.776;9.370;2023-05-19T01:21:39;5.20;;;4.00;;
61617;SDS011;47518;51.776;9.370;2023-05-19T01:27:09;7.65;;;4.00;;
61617;SDS011;47518;51.776;9.370;2023-05-19T01:30:11;4.30;;;3.55;;
61617;SDS011;47518;51.776;9.370;2023-05-19T01:32:47;8.45;;;3.97;;
61617;SDS011;47518;51.776;9.370;2023-05-19T01:35:16;6.10;;;3.75;;
61617;SDS011;47518;51.776;9.370;2023-05-19T01:37:42;5.18;;;3.70;;
61617;SDS011;47518;51.776;9.370;2023-05-19T01:40:09;6.47;;;3.70;;
61617;SDS011;47518;51.776;9.370;2023-05-19T01:42:36;5.00;;;3.72;;
61617;SDS011;47518;51.776;9.370;2023-05-19T01:45:03;7.90;;;3.90;;
61617;SDS011;47518;51.776;9.370;2023-05-19T01:47:34;5.72;;;3.67;;
61617;SDS011;47518;51.776;9.370;2023-05-19T01:50:02;6.15;;;4.00;;
61617;SDS011;47518;51.776;9.370;2023-05-19T01:52:28;7.38;;;4.00;;
61617;SDS011;47518;51.776;9.370;2023-05-19T01:54:53;6.15;;;4.13;;
61617;SDS011;47518;51.776;9.370;2023-05-19T01:57:23;6.38;;;3.92;;
61617;SDS011;47518;51.776;9.370;2023-05-19T02:08:34;5.72;;;3.63;;
61617;SDS011;47518;51.776;9.370;2023-05-19T02:11:08;4.82;;;3.85;;
61617;SDS011;47518;51.776;9.370;2023-05-19T02:16:07;4.70;;;3.90;;
61617;SDS011;47518;51.776;9.370;2023-05-19T02:18:35;6.20;;;3.83;;
61617;SDS011;47518;51.776;9.370;2023-05-19T02:21:00;4.45;;;4.05;;
61617;SDS011;47518;51.776;9.370;2023-05-19T02:23:26;6.03;;;4.00;;
61617;SDS011;47518;51.776;9.370;2023-05-19T02:25:51;4.38;;;3.97;;
61617;SDS011;47518;51.776;9.370;2023-05-19T02:28:17;7.85;;;4.00;;
61617;SDS011;47518;51.776;9.370;2023-05-19T02:30:43;6.07;;;3.75;;
61617;SDS011;47518;51.776;9.370;2023-05-19T02:33:08;5.38;;;4.03;;
61617;SDS011;47518;51.776;9.370;2023-05-19T02:35:35;5.05;;;3.90;;
61617;SDS011;47518;51.776;9.370;2023-05-19T02:38:00;5.65;;;3.90;;
61617;SDS011;47518;51.776;9.370;2023-05-19T02:40:26;5.90;;;3.92;;
61617;SDS011;47518;51.776;9.370;2023-05-19T02:42:51;5.40;;;4.07;;
61617;SDS011;47518;51.776;9.370;2023-05-19T02:45:17;5.60;;;4.03;;
61617;SDS011;47518;51.776;9.370;2023-05-19T02:47:42;8.45;;;4.10;;
61617;SDS011;47518;51.776;9.370;2023-05-19T02:50:07;6.80;;;4.22;;
61617;SDS011;47518;51.776;9.370;2023-05-19T02:52:33;5.90;;;4.22;;
61617;SDS011;47518;51.776;9.370;2023-05-19T02:54:58;5.68;;;3.92;;
61617;SDS011;47518;51.776;9.370;2023-05-19T02:57:24;5.35;;;3.72;;
61617;SDS011;47518;51.776;9.370;2023-05-19T02:59:50;7.70;;;4.28;;
61617;SDS011;47518;51.776;9.370;2023-05-19T03:02:16;7.05;;;3.97;;
61617;SDS011;47518;51.776;9.370;2023-05-19T03:04:41;7.32;;;4.15;;
61617;SDS011;47518;51.776;9.370;2023-05-19T03:07:07;6.22;;;3.92;;
61617;SDS011;47518;51.776;9.370;2023-05-19T03:09:35;6.18;;;4.20;;
61617;SDS011;47518;51.776;9.370;2023-05-19T03:12:01;7.32;;;4.13;;
61617;SDS011;47518;51.776;9.370;2023-05-19T03:14:28;6.03;;;4.10;;
61617;SDS011;47518;51.776;9.370;2023-05-19T03:16:54;7.15;;;4.57;;
61617;SDS011;47518;51.776;9.370;2023-05-19T03:19:20;6.25;;;4.20;;
61617;SDS011;47518;51.776;9.370;2023-05-19T03:21:45;6.75;;;4.05;;
61617;SDS011;47518;51.776;9.370;2023-05-19T03:24:11;7.75;;;4.20;;
61617;SDS011;47518;51.776;9.370;2023-05-19T03:26:37;9.88;;;4.32;;
61617;SDS011;47518;51.776;9.370;2023-05-19T03:29:02;6.55;;;4.03;;
61617;SDS011;47518;51.776;9.370;2023-05-19T03:31:27;5.40;;;3.92;;
61617;SDS011;47518;51.776;9.370;2023-05-19T03:33:54;4.75;;;4.25;;
61617;SDS011;47518;51.776;9.370;2023-05-19T03:36:21;4.70;;;4.05;;
61617;SDS011;47518;51.776;9.370;2023-05-19T03:38:47;5.70;;;4.18;;
61617;SDS011;47518;51.776;9.370;2023-05-19T03:41:12;5.88;;;3.92;;
61617;SDS011;47518;51.776;9.370;2023-05-19T03:43:38;4.57;;;3.88;;
61617;SDS011;47518;51.776;9.370;2023-05-19T03:46:03;5.72;;;4.28;;
61617;SDS011;47518;51.776;9.370;2023-05-19T03:48:28;6.20;;;3.90;;
61617;SDS011;47518;51.776;9.370;2023-05-19T03:50:54;5.03;;;4.00;;
61617;SDS011;47518;51.776;9.370;2023-05-19T03:53:19;5.43;;;4.03;;
61617;SDS011;47518;51.776;9.370;2023-05-19T03:55:45;4.30;;;3.90;;
61617;SDS011;47518;51.776;9.370;2023-05-19T03:58:11;5.75;;;4.20;;
61617;SDS011;47518;51.776;9.370;2023-05-19T04:00:38;4.78;;;3.83;;
61617;SDS011;47518;51.776;9.370;2023-05-19T04:03:04;6.38;;;3.70;;
61617;SDS011;47518;51.776;9.370;2023-05-19T04:05:29;4.47;;;3.90;;
61617;SDS011;47518;51.776;9.370;2023-05-19T04:07:54;4.50;;;3.90;;
61617;SDS011;47518;51.776;9.370;2023-05-19T04:10:20;6.53;;;3.90;;
61617;SDS011;47518;51.776;9.370;2023-05-19T04:12:46;5.30;;;3.88;;
61617;SDS011;47518;51.776;9.370;2023-05-19T04:15:11;7.18;;;3.83;;
61617;SDS011;47518;51.776;9.370;2023-05-19T04:17:37;6.50;;;3.70;;
61617;SDS011;47518;51.776;9.370;2023-05-19T04:20:03;4.20;;;3.85;;
61617;SDS011;47518;51.776;9.370;2023-05-19T04:22:30;7.20;;;3.90;;
61617;SDS011;47518;51.776;9.370;2023-05-19T04:24:56;4.60;;;4.03;;
61617;SDS011;47518;51.776;9.370;2023-05-19T04:27:22;4.35;;;4.00;;
61617;SDS011;47518;51.776;9.370;2023-05-19T04:29:48;6.35;;;3.90;;
61617;SDS011;47518;51.776;9.370;2023-05-19T04:32:13;4.32;;;3.80;;
61617;SDS011;47518;51.776;9.370;2023-05-19T04:34:42;8.85;;;4.10;;
61617;SDS011;47518;51.776;9.370;2023-05-19T04:37:09;5.05;;;3.78;;
61617;SDS011;47518;51.776;9.370;2023-05-19T04:39:34;5.20;;;4.00;;
61617;SDS011;47518;51.776;9.370;2023-05-19T04:42:03;5.32;;;3.80;;
61617;SDS011;47518;51.776;9.370;2023-05-19T04:44:28;6.57;;;4.22;;
61617;SDS011;47518;51.776;9.370;2023-05-19T04:46:54;6.45;;;4.30;;
61617;SDS011;47518;51.776;9.370;2023-05-19T04:49:22;4.88;;;4.20;;
61617;SDS011;47518;51.776;9.370;2023-05-19T04:51:48;6.22;;;4.38;;
61617;SDS011;47518;51.776;9.370;2023-05-19T04:54:15;10.13;;;4.85;;
61617;SDS011;47518;51.776;9.370;2023-05-19T04:56:40;9.15;;;4.10;;
61617;SDS011;47518;51.776;9.370;2023-05-19T04:59:07;7.35;;;4.45;;
61617;SDS011;47518;51.776;9.370;2023-05-19T05:01:33;9.57;;;4.40;;
61617;SDS011;47518;51.776;9.370;2023-05-19T05:04:04;7.43;;;4.25;;
61617;SDS011;47518;51.776;9.370;2023-05-19T05:06:29;7.72;;;4.40;;
61617;SDS011;47518;51.776;9.370;2023-05-19T05:08:55;11.93;;;4.65;;
61617;SDS011;47518;51.776;9.370;2023-05-19T05:11:21;9.07;;;4.13;;
61617;SDS011;47518;51.776;9.370;2023-05-19T05:13:46;10.52;;;5.20;;
61617;SDS011;47518;51.776;9.370;2023-05-19T05:16:12;8.48;;;4.60;;
61617;SDS011;47518;51.776;9.370;2023-05-19T05:18:38;7.88;;;4.55;;
61617;SDS011;47518;51.776;9.370;2023-05-19T05:21:04;6.70;;;4.40;;
61617;SDS011;47518;51.776;9.370;2023-05-19T05:23:31;7.03;;;4.45;;
61617;SDS011;47518;51.776;9.370;2023-05-19T05:25:56;10.85;;;4.57;;
61617;SDS011;47518;51.776;9.370;2023-05-19T05:28:22;15.10;;;5.03;;
61617;SDS011;47518;51.776;9.370;2023-05-19T05:30:47;9.88;;;4.75;;
61617;SDS011;47518;51.776;9.370;2023-05-19T05:33:13;6.60;;;4.65;;
61617;SDS011;47518;51.776;9.370;2023-05-19T05:35:39;8.38;;;4.53;;
61617;SDS011;47518;51.776;9.370;2023-05-19T05:38:04;8.75;;;4.35;;
61617;SDS011;47518;51.776;9.370;2023-05-19T05:40:30;10.45;;;4.88;;
61617;SDS011;47518;51.776;9.370;2023-05-19T05:42:55;7.63;;;5.00;;
61617;SDS011;47518;51.776;9.370;2023-05-19T05:45:22;8.30;;;5.40;;
61617;SDS011;47518;51.776;9.370;2023-05-19T05:47:48;6.80;;;5.30;;
61617;SDS011;47518;51.776;9.370;2023-05-19T05:50:14;8.07;;;5.40;;
61617;SDS011;47518;51.776;9.370;2023-05-19T05:52:40;6.18;;;4.95;;
61617;SDS011;47518;51.776;9.370;2023-05-19T05:55:09;8.10;;;4.82;;
61617;SDS011;47518;51.776;9.370;2023-05-19T05:57:35;9.52;;;5.18;;
61617;SDS011;47518;51.776;9.370;2023-05-19T06:00:01;6.03;;;4.80;;
61617;SDS011;47518;51.776;9.370;2023-05-19T06:02:29;9.02;;;5.13;;
61617;SDS011;47518;51.776;9.370;2023-05-19T06:04:55;6.85;;;4.88;;
61617;SDS011;47518;51.776;9.370;2023-05-19T06:07:23;7.30;;;5.15;;
61617;SDS011;47518;51.776;9.370;2023-05-19T06:09:49;6.55;;;4.45;;
61617;SDS011;47518;51.776;9.370;2023-05-19T06:25:11;7.55;;;5.20;;
61617;SDS011;47518;51.776;9.370;2023-05-19T06:27:36;7.72;;;5.15;;
61617;SDS011;47518;51.776;9.370;2023-05-19T06:30:02;6.70;;;4.93;;
61617;SDS011;47518;51.776;9.370;2023-05-19T06:32:27;8.15;;;5.30;;
61617;SDS011;47518;51.776;9.370;2023-05-19T06:34:53;17.15;;;5.47;;
61617;SDS011;47518;51.776;9.370;2023-05-19T06:37:24;10.57;;;5.45;;
61617;SDS011;47518;51.776;9.370;2023-05-19T06:39:50;7.32;;;4.72;;
61617;SDS011;47518;51.776;9.370;2023-05-19T06:42:17;8.13;;;4.93;;
61617;SDS011;47518;51.776;9.370;2023-05-19T06:44:46;7.97;;;4.57;;
61617;SDS011;47518;51.776;9.370;2023-05-19T06:47:13;6.75;;;4.50;;
61617;SDS011;47518;51.776;9.370;2023-05-19T06:49:39;7.40;;;4.70;;
61617;SDS011;47518;51.776;9.370;2023-05-19T06:52:04;7.88;;;4.55;;
61617;SDS011;47518;51.776;9.370;2023-05-19T06:54:30;7.22;;;4.35;;
61617;SDS011;47518;51.776;9.370;2023-05-19T06:56:55;7.25;;;4.03;;
61617;SDS011;47518;51.776;9.370;2023-05-19T06:59:20;6.70;;;4.20;;
61617;SDS011;47518;51.776;9.370;2023-05-19T07:01:47;8.75;;;4.55;;
61617;SDS011;47518;51.776;9.370;2023-05-19T07:04:12;5.65;;;4.35;;
61617;SDS011;47518;51.776;9.370;2023-05-19T07:06:37;7.00;;;4.47;;
61617;SDS011;47518;51.776;9.370;2023-05-19T07:09:03;5.15;;;4.28;;
61617;SDS011;47518;51.776;9.370;2023-05-19T07:11:29;9.30;;;4.43;;
61617;SDS011;47518;51.776;9.370;2023-05-19T07:13:55;7.63;;;4.10;;
61617;SDS011;47518;51.776;9.370;2023-05-19T07:16:20;7.10;;;4.65;;
61617;SDS011;47518;51.776;9.370;2023-05-19T07:18:45;7.30;;;4.25;;
61617;SDS011;47518;51.776;9.370;2023-05-19T07:21:10;7.82;;;4.57;;
61617;SDS011;47518;51.776;9.370;2023-05-19T07:23:37;5.22;;;4.15;;
61617;SDS011;47518;51.776;9.370;2023-05-19T07:26:02;6.45;;;4.30;;
61617;SDS011;47518;51.776;9.370;2023-05-19T07:28:27;6.30;;;4.20;;
61617;SDS011;47518;51.776;9.370;2023-05-19T07:30:53;6.43;;;4.10;;
61617;SDS011;47518;51.776;9.370;2023-05-19T07:33:18;8.65;;;4.18;;
61617;SDS011;47518;51.776;9.370;2023-05-19T07:36:02;8.32;;;4.35;;
61617;SDS011;47518;51.776;9.370;2023-05-19T07:38:32;10.48;;;4.40;;
61617;SDS011;47518;51.776;9.370;2023-05-19T07:41:00;6.05;;;4.05;;
61617;SDS011;47518;51.776;9.370;2023-05-19T07:43:31;7.68;;;4.03;;
61617;SDS011;47518;51.776;9.370;2023-05-19T07:45:59;5.72;;;4.00;;
61617;SDS011;47518;51.776;9.370;2023-05-19T07:48:25;5.63;;;4.00;;
61617;SDS011;47518;51.776;9.370;2023-05-19T07:50:51;5.97;;;3.88;;
61617;SDS011;47518;51.776;9.370;2023-05-19T07:53:24;6.45;;;3.88;;
61617;SDS011;47518;51.776;9.370;2023-05-19T07:56:00;9.57;;;4.20;;
61617;SDS011;47518;51.776;9.370;2023-05-19T07:58:25;6.18;;;4.22;;
61617;SDS011;47518;51.776;9.370;2023-05-19T08:00:51;6.65;;;3.58;;
61617;SDS011;47518;51.776;9.370;2023-05-19T08:03:17;7.43;;;3.70;;
61617;SDS011;47518;51.776;9.370;2023-05-19T08:05:47;7.57;;;4.35;;
61617;SDS011;47518;51.776;9.370;2023-05-19T08:08:15;16.40;;;4.53;;
61617;SDS011;47518;51.776;9.370;2023-05-19T08:10:41;6.20;;;3.60;;
61617;SDS011;47518;51.776;9.370;2023-05-19T08:13:09;5.90;;;3.80;;
61617;SDS011;47518;51.776;9.370;2023-05-19T08:15:34;4.18;;;3.75;;
61617;SDS011;47518;51.776;9.370;2023-05-19T08:18:00;7.75;;;3.70;;
61617;SDS011;47518;51.776;9.370;2023-05-19T08:20:26;7.20;;;3.67;;
61617;SDS011;47518;51.776;9.370;2023-05-19T08:22:52;3.70;;;3.40;;
61617;SDS011;47518;51.776;9.370;2023-05-19T08:25:17;4.93;;;3.50;;
61617;SDS011;47518;51.776;9.370;2023-05-19T08:27:43;6.13;;;3.65;;
61617;SDS011;47518;51.776;9.370;2023-05-19T08:30:09;6.63;;;3.67;;
61617;SDS011;47518;51.776;9.370;2023-05-19T08:32:36;6.05;;;3.75;;
61617;SDS011;47518;51.776;9.370;2023-05-19T08:35:04;7.43;;;3.50;;
61617;SDS011;47518;51.776;9.370;2023-05-19T08:37:29;7.03;;;3.50;;
61617;SDS011;47518;51.776;9.370;2023-05-19T08:39:55;8.88;;;3.53;;
61617;SDS011;47518;51.776;9.370;2023-05-19T08:42:21;4.50;;;3.40;;
61617;SDS011;47518;51.776;9.370;2023-05-19T08:44:47;5.18;;;3.55;;
61617;SDS011;47518;51.776;9.370;2023-05-19T08:47:12;4.85;;;3.53;;
61617;SDS011;47518;51.776;9.370;2023-05-19T08:49:42;6.38;;;3.80;;
61617;SDS011;47518;51.776;9.370;2023-05-19T08:55:01;4.20;;;3.30;;
61617;SDS011;47518;51.776;9.370;2023-05-19T08:57:49;6.72;;;3.30;;
61617;SDS011;47518;51.776;9.370;2023-05-19T09:00:25;7.47;;;3.50;;
61617;SDS011;47518;51.776;9.370;2023-05-19T09:02:58;5.70;;;3.38;;
61617;SDS011;47518;51.776;9.370;2023-05-19T09:05:24;3.47;;;3.17;;
61617;SDS011;47518;51.776;9.370;2023-05-19T09:07:50;4.68;;;3.17;;
61617;SDS011;47518;51.776;9.370;2023-05-19T09:10:15;7.07;;;3.58;;
61617;SDS011;47518;51.776;9.370;2023-05-19T09:12:44;3.80;;;3.40;;
61617;SDS011;47518;51.776;9.370;2023-05-19T09:15:12;4.03;;;3.50;;
61617;SDS011;47518;51.776;9.370;2023-05-19T09:17:47;6.38;;;3.40;;
61617;SDS011;47518;51.776;9.370;2023-05-19T09:20:12;5.28;;;3.28;;
61617;SDS011;47518;51.776;9.370;2023-05-19T09:22:40;5.38;;;3.40;;
61617;SDS011;47518;51.776;9.370;2023-05-19T09:25:16;5.38;;;3.60;;
61617;SDS011;47518;51.776;9.370;2023-05-19T09:27:56;5.18;;;3.40;;
61617;SDS011;47518;51.776;9.370;2023-05-19T09:30:24;6.03;;;3.53;;
61617;SDS011;47518;51.776;9.370;2023-05-19T09:32:50;4.93;;;3.45;;
61617;SDS011;47518;51.776;9.370;2023-05-19T09:35:15;6.03;;;3.80;;
61617;SDS011;47518;51.776;9.370;2023-05-19T09:37:43;4.10;;;3.65;;
61617;SDS011;47518;51.776;9.370;2023-05-19T09:40:12;6.13;;;3.60;;
61617;SDS011;47518;51.776;9.370;2023-05-19T09:42:38;6.35;;;3.72;;
61617;SDS011;47518;51.776;9.370;2023-05-19T09:45:05;3.42;;;3.10;;
61617;SDS011;47518;51.776;9.370;2023-05-19T09:47:41;3.28;;;2.92;;
61617;SDS011;47518;51.776;9.370;2023-05-19T09:50:11;3.60;;;3.20;;
61617;SDS011;47518;51.776;9.370;2023-05-19T09:52:38;5.65;;;3.30;;
61617;SDS011;47518;51.776;9.370;2023-05-19T09:55:08;3.67;;;3.10;;
61617;SDS011;47518;51.776;9.370;2023-05-19T09:57:38;4.55;;;3.25;;
61617;SDS011;47518;51.776;9.370;2023-05-19T10:00:30;4.78;;;3.20;;
61617;SDS011;47518;51.776;9.370;2023-05-19T10:02:56;5.22;;;3.20;;
61617;SDS011;47518;51.776;9.370;2023-05-19T10:05:27;4.75;;;3.20;;
61617;SDS011;47518;51.776;9.370;2023-05-19T10:08:13;4.32;;;3.33;;
61617;SDS011;47518;51.776;9.370;2023-05-19T10:10:41;6.28;;;3.40;;
61617;SDS011;47518;51.776;9.370;2023-05-19T10:13:09;3.78;;;3.35;;
61617;SDS011;47518;51.776;9.370;2023-05-19T10:15:35;6.80;;;3.60;;
61617;SDS011;47518;51.776;9.370;2023-05-19T10:18:02;3.90;;;3.50;;
61617;SDS011;47518;51.776;9.370;2023-05-19T10:20:27;3.70;;;3.40;;
61617;SDS011;47518;51.776;9.370;2023-05-19T10:22:54;4.05;;;3.20;;
61617;SDS011;47518;51.776;9.370;2023-05-19T10:25:19;4.03;;;3.20;;
61617;SDS011;47518;51.776;9.370;2023-05-19T10:27:48;4.18;;;3.13;;
61617;SDS011;47518;51.776;9.370;2023-05-19T10:30:24;3.67;;;3.38;;
61617;SDS011;47518;51.776;9.370;2023-05-19T10:32:52;4.00;;;3.60;;
61617;SDS011;47518;51.776;9.370;2023-05-19T10:38:32;4.75;;;3.25;;
61617;SDS011;47518;51.776;9.370;2023-05-19T10:44:00;3.42;;;3.05;;
61617;SDS011;47518;51.776;9.370;2023-05-19T10:46:33;3.72;;;3.25;;
61617;SDS011;47518;51.776;9.370;2023-05-19T10:48:59;3.25;;;3.05;;
61617;SDS011;47518;51.776;9.370;2023-05-19T10:51:29;4.63;;;3.03;;
61617;SDS011;47518;51.776;9.370;2023-05-19T10:53:55;6.45;;;3.20;;
61617;SDS011;47518;51.776;9.370;2023-05-19T10:56:26;3.55;;;3.35;;
61617;SDS011;47518;51.776;9.370;2023-05-19T11:01:19;3.72;;;3.22;;
61617;SDS011;47518;51.776;9.370;2023-05-19T11:03:50;3.30;;;3.00;;
61617;SDS011;47518;51.776;9.370;2023-05-19T11:06:18;3.40;;;3.17;;
61617;SDS011;47518;51.776;9.370;2023-05-19T11:08:59;4.75;;;2.80;;
61617;SDS011;47518;51.776;9.370;2023-05-19T11:11:52;3.83;;;3.40;;
61617;SDS011;47518;51.776;9.370;2023-05-19T11:14:20;3.67;;;3.38;;
61617;SDS011;47518;51.776;9.370;2023-05-19T11:16:49;3.65;;;3.28;;
61617;SDS011;47518;51.776;9.370;2023-05-19T11:19:16;3.72;;;3.42;;
61617;SDS011;47518;51.776;9.370;2023-05-19T11:21:49;3.78;;;3.30;;
61617;SDS011;47518;51.776;9.370;2023-05-19T11:29:56;3.47;;;3.17;;
61617;SDS011;47518;51.776;9.370;2023-05-19T11:32:25;3.25;;;2.90;;
61617;SDS011;47518;51.776;9.370;2023-05-19T11:34:51;4.03;;;3.22;;
61617;SDS011;47518;51.776;9.370;2023-05-19T11:37:20;3.30;;;2.90;;
61617;SDS011;47518;51.776;9.370;2023-05-19T11:39:46;3.85;;;3.20;;
61617;SDS011;47518;51.776;9.370;2023-05-19T11:42:11;5.85;;;3.42;;
61617;SDS011;47518;51.776;9.370;2023-05-19T11:44:37;3.78;;;3.20;;
61617;SDS011;47518;51.776;9.370;2023-05-19T11:47:03;5.13;;;3.30;;
61617;SDS011;47518;51.776;9.370;2023-05-19T11:49:29;3.60;;;3.30;;
61617;SDS011;47518;51.776;9.370;2023-05-19T11:51:55;5.63;;;3.33;;
61617;SDS011;47518;51.776;9.370;2023-05-19T11:54:27;3.60;;;3.30;;
61617;SDS011;47518;51.776;9.370;2023-05-19T11:56:59;5.20;;;3.40;;
61617;SDS011;47518;51.776;9.370;2023-05-19T11:59:30;3.53;;;3.20;;
61617;SDS011;47518;51.776;9.370;2023-05-19T12:02:01;3.10;;;2.90;;
61617;SDS011;47518;51.776;9.370;2023-05-19T12:04:38;5.87;;;3.33;;
61617;SDS011;47518;51.776;9.370;2023-05-19T12:07:03;3.60;;;3.30;;
61617;SDS011;47518;51.776;9.370;2023-05-19T12:09:29;3.30;;;3.10;;
61617;SDS011;47518;51.776;9.370;2023-05-19T12:11:54;4.00;;;3.08;;
61617;SDS011;47518;51.776;9.370;2023-05-19T12:14:19;4.07;;;3.40;;
61617;SDS011;47518;51.776;9.370;2023-05-19T12:16:46;4.78;;;3.35;;
61617;SDS011;47518;51.776;9.370;2023-05-19T12:19:11;3.75;;;3.42;;
61617;SDS011;47518;51.776;9.370;2023-05-19T12:21:36;3.22;;;3.03;;
61617;SDS011;47518;51.776;9.370;2023-05-19T12:24:02;7.13;;;3.20;;
61617;SDS011;47518;51.776;9.370;2023-05-19T12:26:30;3.80;;;3.20;;
61617;SDS011;47518;51.776;9.370;2023-05-19T12:28:59;6.10;;;3.20;;
61617;SDS011;47518;51.776;9.370;2023-05-19T12:31:25;4.13;;;3.60;;
61617;SDS011;47518;51.776;9.370;2023-05-19T12:33:50;4.07;;;3.63;;
61617;SDS011;47518;51.776;9.370;2023-05-19T12:36:16;3.80;;;3.40;;
61617;SDS011;47518;51.776;9.370;2023-05-19T12:38:42;3.83;;;3.17;;
61617;SDS011;47518;51.776;9.370;2023-05-19T12:41:09;4.05;;;3.40;;
61617;SDS011;47518;51.776;9.370;2023-05-19T12:43:36;5.85;;;3.42;;
61617;SDS011;47518;51.776;9.370;2023-05-19T12:46:10;3.58;;;3.28;;
61617;SDS011;47518;51.776;9.370;2023-05-19T12:48:40;3.53;;;2.97;;
61617;SDS011;47518;51.776;9.370;2023-05-19T12:51:07;3.93;;;2.90;;
61617;SDS011;47518;51.776;9.370;2023-05-19T12:53:32;5.85;;;3.08;;
61617;SDS011;47518;51.776;9.370;2023-05-19T12:55:58;5.47;;;3.45;;
61617;SDS011;47518;51.776;9.370;2023-05-19T12:58:24;3.20;;;3.00;;
61617;SDS011;47518;51.776;9.370;2023-05-19T13:00:49;3.80;;;3.10;;
61617;SDS011;47518;51.776;9.370;2023-05-19T13:03:17;3.17;;;2.97;;
61617;SDS011;47518;51.776;9.370;2023-05-19T13:05:44;3.00;;;2.80;;
61617;SDS011;47518;51.776;9.370;2023-05-19T13:08:13;3.85;;;2.70;;
61617;SDS011;47518;51.776;9.370;2023-05-19T13:10:42;3.00;;;2.80;;
61617;SDS011;47518;51.776;9.370;2023-05-19T13:13:09;4.40;;;2.70;;
61617;SDS011;47518;51.776;9.370;2023-05-19T13:15:36;2.95;;;2.63;;
61617;SDS011;47518;51.776;9.370;2023-05-19T13:18:05;4.20;;;2.83;;
61617;SDS011;47518;51.776;9.370;2023-05-19T13:20:33;2.80;;;2.60;;
61617;SDS011;47518;51.776;9.370;2023-05-19T13:22:59;2.90;;;2.70;;
61617;SDS011;47518;51.776;9.370;2023-05-19T13:25:25;3.60;;;2.60;;
61617;SDS011;47518;51.776;9.370;2023-05-19T13:27:51;4.00;;;2.72;;
61617;SDS011;47518;51.776;9.370;2023-05-19T13:30:19;2.78;;;2.60;;
61617;SDS011;47518;51.776;9.370;2023-05-19T13:32:45;3.20;;;2.90;;
61617;SDS011;47518;51.776;9.370;2023-05-19T13:35:12;3.90;;;2.90;;
61617;SDS011;47518;51.776;9.370;2023-05-19T13:37:40;2.85;;;2.60;;
61617;SDS011;47518;51.776;9.370;2023-05-19T13:40:06;6.60;;;2.80;;
61617;SDS011;47518;51.776;9.370;2023-05-19T13:42:32;3.40;;;2.90;;
61617;SDS011;47518;51.776;9.370;2023-05-19T13:44:59;2.90;;;2.70;;
61617;SDS011;47518;51.776;9.370;2023-05-19T13:47:24;4.35;;;2.78;;
61617;SDS011;47518;51.776;9.370;2023-05-19T13:49:50;4.20;;;2.80;;
61617;SDS011;47518;51.776;9.370;2023-05-19T13:52:16;4.80;;;2.67;;
61617;SDS011;47518;51.776;9.370;2023-05-19T13:54:42;4.53;;;2.90;;
61617;SDS011;47518;51.776;9.370;2023-05-19T13:57:07;3.00;;;2.80;;
61617;SDS011;47518;51.776;9.370;2023-05-19T13:59:33;2.92;;;2.72;;
61617;SDS011;47518;51.776;9.370;2023-05-19T14:01:59;3.22;;;2.58;;
61617;SDS011;47518;51.776;9.370;2023-05-19T14:04:24;3.15;;;2.92;;
61617;SDS011;47518;51.776;9.370;2023-05-19T14:06:49;3.47;;;2.90;;
61617;SDS011;47518;51.776;9.370;2023-05-19T14:09:17;2.83;;;2.63;;
61617;SDS011;47518;51.776;9.370;2023-05-19T14:11:43;4.15;;;2.70;;
61617;SDS011;47518;51.776;9.370;2023-05-19T14:14:08;3.10;;;2.80;;
61617;SDS011;47518;51.776;9.370;2023-05-19T14:16:33;2.83;;;2.63;;
61617;SDS011;47518;51.776;9.370;2023-05-19T14:18:59;3.03;;;2.55;;
61617;SDS011;47518;51.776;9.370;2023-05-19T14:21:24;2.88;;;2.55;;
61617;SDS011;47518;51.776;9.370;2023-05-19T14:23:49;2.88;;;2.60;;
61617;SDS011;47518;51.776;9.370;2023-05-19T14:26:15;5.25;;;2.70;;
61617;SDS011;47518;51.776;9.370;2023-05-19T14:28:40;2.88;;;2.67;;
61617;SDS011;47518;51.776;9.370;2023-05-19T14:31:13;2.80;;;2.60;;
61617;SDS011;47518;51.776;9.370;2023-05-19T14:33:42;2.90;;;2.63;;
61617;SDS011;47518;51.776;9.370;2023-05-19T14:36:07;2.60;;;2.40;;
61617;SDS011;47518;51.776;9.370;2023-05-19T14:38:33;2.83;;;2.60;;
61617;SDS011;47518;51.776;9.370;2023-05-19T14:40:59;5.10;;;2.63;;
61617;SDS011;47518;51.776;9.370;2023-05-19T14:43:28;3.47;;;2.80;;
61617;SDS011;47518;51.776;9.370;2023-05-19T14:45:54;2.80;;;2.60;;
61617;SDS011;47518;51.776;9.370;2023-05-19T14:48:20;3.97;;;2.70;;
61617;SDS011;47518;51.776;9.370;2023-05-19T14:50:46;4.18;;;2.70;;
61617;SDS011;47518;51.776;9.370;2023-05-19T14:53:12;4.82;;;2.70;;
61617;SDS011;47518;51.776;9.370;2023-05-19T14:55:38;3.72;;;2.67;;
61617;SDS011;47518;51.776;9.370;2023-05-19T14:58:03;3.80;;;2.80;;
61617;SDS011;47518;51.776;9.370;2023-05-19T15:00:31;3.45;;;2.75;;
61617;SDS011;47518;51.776;9.370;2023-05-19T15:02:59;2.83;;;2.63;;
61617;SDS011;47518;51.776;9.370;2023-05-19T15:05:25;3.35;;;2.63;;
61617;SDS011;47518;51.776;9.370;2023-05-19T15:07:50;7.63;;;2.80;;
61617;SDS011;47518;51.776;9.370;2023-05-19T15:10:16;2.80;;;2.60;;
61617;SDS011;47518;51.776;9.370;2023-05-19T15:12:45;4.13;;;2.72;;
61617;SDS011;47518;51.776;9.370;2023-05-19T15:15:10;3.58;;;2.80;;
61617;SDS011;47518;51.776;9.370;2023-05-19T15:17:36;3.38;;;2.92;;
61617;SDS011;47518;51.776;9.370;2023-05-19T15:20:04;4.75;;;2.67;;
61617;SDS011;47518;51.776;9.370;2023-05-19T15:22:30;3.75;;;2.80;;
61617;SDS011;47518;51.776;9.370;2023-05-19T15:24:56;3.42;;;2.80;;
61617;SDS011;47518;51.776;9.370;2023-05-19T15:27:25;3.08;;;2.72;;
61617;SDS011;47518;51.776;9.370;2023-05-19T15:29:50;4.22;;;2.95;;
61617;SDS011;47518;51.776;9.370;2023-05-19T15:32:15;4.97;;;3.00;;